To NAV CANADA Home Page Login to a new session Search on AWWS site Feedback and Comments Disclaimer Vers la page française équivalente Tips FAQ What's new on the site To the Forecasts and Observations / NOTAM section To "File a Flight Plan" website Publications and other links Update of the User's profile FIC Telephone Numbers My Weather Data Folder Route Weather Data Regional Weather Data Local Weather Data To the Forecasts and Observations / NOTAM section
Request Generated 09/30/2016 at 04:54:17 UTC . Weather information available at that time is displayed.

METAR/TAF

EDMONTON INTL/AB    

METAR CYEG 300400Z 09008KT 15SM OVC055 13/05 A3009 RMK SC8 SLP207
DENSITY ALT 2400FT=
METAR CYEG 300300Z 07008KT 15SM OVC059 13/04 A3009 RMK SC8 SLP212
DENSITY ALT 2400FT=
METAR CYEG 300200Z 05006KT 12SM OVC058 13/05 A3010 RMK SC8 HZ SLP220
DENSITY ALT 2400FT=

TAF CYEG 300238Z 3003/3024 05006KT P6SM OVC060
FM301300 08008KT P6SM OVC030 TEMPO 3013/3024 OVC020
RMK NXT FCST BY 300600Z=
Your time UTC time
Weather data provided by Environment Canada and NAV CANADA